Time;durP1;ratioP1;P1;durP2;ratioP2;P2;SDS_P1;SDS_P2;PMS_P1;PMS_P2;Temp;Humidity;BMP_temperature;BMP_pressure;BME280_temperature;BME280_humidity;BME280_pressure;Samples;Min_cycle;Max_cycle;Signal;HPM_P1;HPM_P2
2022/11/02 00:00:18;;;;;;;2.75;1.08;;;;;;;;;;5079734;28;20039;-60
2022/11/02 00:03:29;;;;;;;3.40;1.13;;;;;;;;;;5087087;28;20032;-58
2022/11/02 00:06:20;;;;;;;;;;;;;;;;;;;;;
2022/11/02 00:09:06;;;;;;;2.00;0.60;;;;;;;;;;4930389;29;20064;-59
2022/11/02 00:12:03;;;;;;;2.08;0.73;;;;;;;;;;4914410;29;20040;-59
2022/11/02 00:14:47;;;;;;;1.52;0.80;;;;;;;;;;4930091;29;20032;-58
2022/11/02 00:17:32;;;;;;;3.90;1.15;;;;;;;;;;4930209;29;20072;-58
2022/11/02 00:20:42;;;;;;;;;;;;;;;;;;;;;
2022/11/02 00:29:24;;;;;;;2.67;1.48;;;;;;;;;;5093672;28;20061;-59
2022/11/02 00:31:59;;;;;;;3.22;1.42;;;;;;;;;;5087289;28;20044;-59
2022/11/02 00:34:52;;;;;;;;;;;;;;;;;;;;;
2022/11/02 00:37:40;;;;;;;4.88;1.38;;;;;;;;;;5091492;28;20056;-59
2022/11/02 00:40:26;;;;;;;8.43;1.50;;;;;;;;;;5090453;28;20028;-59
2022/11/02 00:43:06;;;;;;;2.67;1.20;;;;;;;;;;5092503;28;20024;-59
2022/11/02 00:45:51;;;;;;;4.15;1.25;;;;;;;;;;5091727;28;20027;-59
2022/11/02 00:48:49;;;;;;;3.63;1.23;;;;;;;;;;5092395;28;20039;-59
2022/11/02 01:00:13;;;;;;;2.13;1.45;;;;;;;;;;5049572;28;20148;-59
2022/11/02 01:09:16;;;;;;;;;;;;;;;;;;;;;
2022/11/02 01:12:11;;;;;;;1.13;0.60;;;;;;;;;;5089138;28;20056;-59
2022/11/02 01:15:13;;;;;;;1.52;0.85;;;;;;;;;;5090766;28;20390;-59
2022/11/02 01:20:27;;;;;;;2.50;1.65;;;;;;;;;;5090735;28;20044;-59
2022/11/02 01:32:04;;;;;;;2.50;1.30;;;;;;;;;;5060244;28;20143;-59
2022/11/02 01:34:57;;;;;;;1.65;1.08;;;;;;;;;;5052115;28;20029;-59
2022/11/02 01:37:39;;;;;;;6.80;1.15;;;;;;;;;;5068415;28;20047;-59
2022/11/02 01:40:38;;;;;;;1.98;1.08;;;;;;;;;;5051306;28;20041;-59
2022/11/02 01:43:29;;;;;;;2.33;1.27;;;;;;;;;;5025357;28;20033;-59
2022/11/02 01:52:16;;;;;;;1.63;0.70;;;;;;;;;;5068231;28;20056;-58
2022/11/02 01:55:07;;;;;;;3.63;1.85;;;;;;;;;;5060922;28;20096;-59
2022/11/02 02:00:59;;;;;;;2.85;1.40;;;;;;;;;;5066583;28;20044;-59
2022/11/02 02:03:32;;;;;;;2.55;1.67;;;;;;;;;;5057802;28;20041;-59
2022/11/02 02:06:08;;;;;;;2.25;1.33;;;;;;;;;;5069747;28;20352;-59
2022/11/02 02:08:47;;;;;;;4.32;1.30;;;;;;;;;;5070073;28;20085;-59
2022/11/02 02:11:52;;;;;;;3.88;1.83;;;;;;;;;;5070387;28;20029;-59
2022/11/02 02:14:59;;;;;;;2.40;1.55;;;;;;;;;;4989358;28;20234;-59
2022/11/02 02:18:02;;;;;;;2.00;1.17;;;;;;;;;;4989032;28;20513;-59
2022/11/02 02:24:04;;;;;;;3.90;1.40;;;;;;;;;;4950093;28;20099;-59
2022/11/02 02:29:50;;;;;;;6.07;2.03;;;;;;;;;;4967505;28;20066;-59
2022/11/02 02:32:30;;;;;;;2.30;1.10;;;;;;;;;;5005327;28;20077;-59
2022/11/02 02:35:16;;;;;;;3.13;1.33;;;;;;;;;;5050492;28;20062;-59
2022/11/02 02:41:03;;;;;;;2.03;0.93;;;;;;;;;;5069371;28;20051;-59
2022/11/02 02:43:48;;;;;;;3.70;1.50;;;;;;;;;;5069579;28;20053;-59
2022/11/02 02:46:39;;;;;;;2.72;1.52;;;;;;;;;;5069471;28;20305;-59
2022/11/02 02:49:32;;;;;;;3.60;1.60;;;;;;;;;;5028149;28;20049;-59
2022/11/02 02:52:11;;;;;;;5.35;1.85;;;;;;;;;;5028010;28;20056;-59
2022/11/02 02:58:07;;;;;;;3.80;1.38;;;;;;;;;;5020108;28;20092;-59
2022/11/02 03:00:35;;;;;;;4.68;1.48;;;;;;;;;;4999067;28;20495;-59
2022/11/02 03:03:25;;;;;;;3.95;1.42;;;;;;;;;;5027672;28;20026;-59
2022/11/02 03:06:10;;;;;;;1.98;1.20;;;;;;;;;;5027409;28;20093;-59
2022/11/02 03:08:57;;;;;;;3.50;1.52;;;;;;;;;;5027793;28;20049;-59
2022/11/02 03:11:40;;;;;;;;;;;;;;;;;;;;;
2022/11/02 03:17:31;;;;;;;2.17;1.08;;;;;;;;;;5024138;28;20060;-59
2022/11/02 03:20:25;;;;;;;2.22;1.23;;;;;;;;;;5038837;28;20055;-59
2022/11/02 03:23:19;;;;;;;2.85;1.73;;;;;;;;;;5056906;28;20553;-59
2022/11/02 03:26:11;;;;;;;3.80;1.80;;;;;;;;;;5068542;28;20029;-59
2022/11/02 03:28:46;;;;;;;;;;;;;;;;;;5067099;28;20029;-59
2022/11/02 03:35:02;;;;;;;3.38;1.40;;;;;;;;;;4997752;28;20050;-59
2022/11/02 03:38:36;;;;;;;1.95;1.17;;;;;;;;;;5109515;28;20040;-59
2022/11/02 03:43:49;;;;;;;2.65;1.35;;;;;;;;;;5007746;28;20049;-59
2022/11/02 03:56:03;;;;;;;2.95;1.17;;;;;;;;;;5044598;28;20025;-59
2022/11/02 03:58:50;;;;;;;2.75;1.38;;;;;;;;;;5067559;28;20037;-59
2022/11/02 04:14:36;;;;;;;2.80;1.10;;;;;;;;;;5069407;28;20056;-59
2022/11/02 04:19:35;;;;;;;3.33;1.35;;;;;;;;;;5070785;28;20602;-58
2022/11/02 04:25:28;;;;;;;4.55;1.40;;;;;;;;;;5112427;28;20039;-59
2022/11/02 04:28:12;;;;;;;5.57;1.80;;;;;;;;;;5094325;28;20135;-59
2022/11/02 04:30:45;;;;;;;4.03;1.25;;;;;;;;;;5090612;28;20036;-58
2022/11/02 04:33:37;;;;;;;2.03;1.15;;;;;;;;;;5098253;28;20458;-59
2022/11/02 04:39:08;;;;;;;;;;;;;;;;;;;;;
2022/11/02 04:45:14;;;;;;;3.33;1.42;;;;;;;;;;5097688;28;20086;-59
2022/11/02 04:54:11;;;;;;;3.58;1.20;;;;;;;;;;5045087;28;20039;-59
2022/11/02 04:57:12;;;;;;;4.22;1.48;;;;;;;;;;5097001;28;20031;-59
2022/11/02 04:59:57;;;;;;;3.22;1.48;;;;;;;;;;5059577;28;20066;-59
2022/11/02 05:02:32;;;;;;;2.63;0.98;;;;;;;;;;5097452;28;20044;-59
2022/11/02 05:05:14;;;;;;;4.35;1.40;;;;;;;;;;5096710;28;20058;-59
2022/11/02 05:07:54;;;;;;;6.05;1.50;;;;;;;;;;5097202;28;20081;-58
2022/11/02 05:10:29;;;;;;;3.70;1.63;;;;;;;;;;5097466;28;20069;-59
2022/11/02 05:13:24;;;;;;;1.83;1.02;;;;;;;;;;5096853;28;20073;-59
2022/11/02 05:16:22;;;;;;;2.20;1.05;;;;;;;;;;5094918;28;20158;-59
2022/11/02 05:19:18;;;;;;;;;;;;;;;;;;;;;
2022/11/02 05:22:06;;;;;;;;;;;;;;;;;;;;;
2022/11/02 05:24:50;;;;;;;3.40;1.15;;;;;;;;;;5096762;28;20032;-59
2022/11/02 05:27:34;;;;;;;3.45;1.33;;;;;;;;;;5079158;28;20454;-59
2022/11/02 05:33:44;;;;;;;1.50;0.70;;;;;;;;;;5096293;28;20044;-59
2022/11/02 05:36:17;;;;;;;2.53;1.45;;;;;;;;;;5055563;28;20061;-59
2022/11/02 05:39:14;;;;;;;4.75;1.50;;;;;;;;;;5079420;28;20124;-58
2022/11/02 05:42:07;;;;;;;4.05;1.50;;;;;;;;;;5097254;28;20039;-58
2022/11/02 05:44:44;;;;;;;5.00;1.65;;;;;;;;;;5097159;28;20085;-59
2022/11/02 05:53:31;;;;;;;5.45;0.85;;;;;;;;;;5090863;28;20056;-59
2022/11/02 05:56:16;;;;;;;;;;;;;;;;;;;;;
2022/11/02 05:58:48;;;;;;;2.97;1.58;;;;;;;;;;5096021;28;20032;-59
2022/11/02 06:01:37;;;;;;;2.97;1.35;;;;;;;;;;5096628;28;20039;-58
2022/11/02 06:07:12;;;;;;;4.13;2.17;;;;;;;;;;5087582;28;20039;-58
2022/11/02 06:09:47;;;;;;;2.95;1.13;;;;;;;;;;5046460;28;20413;-59
2022/11/02 06:12:50;;;;;;;8.40;1.65;;;;;;;;;;5096349;28;20026;-59
2022/11/02 06:15:36;;;;;;;2.15;1.00;;;;;;;;;;5077539;28;20043;-59
2022/11/02 06:21:28;;;;;;;5.22;1.75;;;;;;;;;;5095816;28;20107;-59
2022/11/02 06:27:38;;;;;;;3.00;1.38;;;;;;;;;;4991418;28;20100;-59
2022/11/02 06:30:08;;;;;;;5.35;1.38;;;;;;;;;;4993485;28;20037;-58
2022/11/02 06:33:28;;;;;;;;;;;;;;;;;;;;;
2022/11/02 06:35:58;;;;;;;3.22;1.38;;;;;;;;;;5065674;28;20056;-59
2022/11/02 06:38:37;;;;;;;5.72;1.73;;;;;;;;;;5065829;28;20100;-59
2022/11/02 06:41:26;;;;;;;3.42;1.67;;;;;;;;;;5068522;28;20060;-59
2022/11/02 06:44:28;;;;;;;7.22;1.50;;;;;;;;;;5068072;28;20481;-58
2022/11/02 06:53:24;;;;;;;3.97;1.25;;;;;;;;;;5068244;28;19972;-59
2022/11/02 06:59:13;;;;;;;5.00;1.27;;;;;;;;;;5051727;28;20040;-59
2022/11/02 07:02:18;;;;;;;2.40;1.50;;;;;;;;;;5067844;28;20373;-58
2022/11/02 07:04:59;;;;;;;6.07;1.67;;;;;;;;;;5067195;28;20028;-59
2022/11/02 07:08:05;;;;;;;;;;;;;;;;;;;;;
2022/11/02 07:10:47;;;;;;;3.92;1.52;;;;;;;;;;5067724;28;20061;-59
2022/11/02 07:13:32;;;;;;;6.72;1.25;;;;;;;;;;5067311;28;20017;-59
2022/11/02 07:16:25;;;;;;;6.15;1.60;;;;;;;;;;5067637;28;20017;-59
2022/11/02 07:21:58;;;;;;;3.28;1.02;;;;;;;;;;5056680;28;20043;-58
2022/11/02 07:24:37;;;;;;;3.28;1.77;;;;;;;;;;5064220;28;20037;-58
2022/11/02 07:27:26;;;;;;;3.20;1.30;;;;;;;;;;5066883;28;20037;-59
2022/11/02 07:30:18;;;;;;;4.88;1.73;;;;;;;;;;5067795;28;20052;-59
2022/11/02 07:39:27;;;;;;;3.33;1.13;;;;;;;;;;5025851;28;20033;-57
2022/11/02 07:45:15;;;;;;;3.33;1.08;;;;;;;;;;5025187;28;20037;-57
2022/11/02 07:47:56;;;;;;;8.15;1.10;;;;;;;;;;5011856;28;20046;-58
2022/11/02 07:53:42;;;;;;;3.65;1.60;;;;;;;;;;4971967;29;20701;-57
2022/11/02 07:56:14;;;;;;;3.63;1.30;;;;;;;;;;5013837;28;20041;-58
2022/11/02 07:58:49;;;;;;;2.78;0.90;;;;;;;;;;5029372;28;20038;-58
2022/11/02 08:01:30;;;;;;;5.60;1.05;;;;;;;;;;5029558;28;20030;-58
2022/11/02 08:04:10;;;;;;;8.77;1.13;;;;;;;;;;5029198;28;20065;-58
2022/11/02 08:07:13;;;;;;;8.90;1.38;;;;;;;;;;5030287;28;20118;-58
2022/11/02 08:10:00;;;;;;;4.45;1.27;;;;;;;;;;5066141;28;20033;-58
2022/11/02 08:12:39;;;;;;;5.97;1.23;;;;;;;;;;5065633;28;20037;-58
2022/11/02 08:18:34;;;;;;;6.65;1.63;;;;;;;;;;5062704;28;20060;-58
2022/11/02 08:21:34;;;;;;;2.60;1.10;;;;;;;;;;5071671;28;20021;-59
2022/11/02 08:24:21;;;;;;;5.22;1.23;;;;;;;;;;5063843;28;20041;-59
2022/11/02 08:27:03;;;;;;;4.90;2.22;;;;;;;;;;5071281;28;20029;-59
2022/11/02 08:29:39;;;;;;;3.15;1.75;;;;;;;;;;5071013;28;20036;-59
2022/11/02 08:32:15;;;;;;;5.35;1.42;;;;;;;;;;5075559;28;20051;-58
2022/11/02 08:41:18;;;;;;;;;;;;;;;;;;;;;
2022/11/02 08:44:23;;;;;;;9.32;2.38;;;;;;;;;;5097122;28;20079;-59
2022/11/02 08:47:26;;;;;;;4.38;1.85;;;;;;;;;;5093070;28;20078;-59
2022/11/02 08:50:01;;;;;;;4.00;1.27;;;;;;;;;;5098398;28;20115;-59
2022/11/02 08:53:31;;;;;;;1.95;0.98;;;;;;;;;;5097801;28;20028;-58
2022/11/02 08:59:01;;;;;;;3.35;0.82;;;;;;;;;;5067444;28;20036;-59
2022/11/02 09:01:54;;;;;;;;;;;;;;;;;;;;;
2022/11/02 09:08:05;;;;;;;3.50;1.25;;;;;;;;;;5067157;28;20508;-58
2022/11/02 09:11:09;;;;;;;;;;;;;;;;;;;;;
2022/11/02 09:16:43;;;;;;;4.20;0.85;;;;;;;;;;5096859;28;20146;-59
2022/11/02 09:19:27;;;;;;;1.88;0.90;;;;;;;;;;5097049;28;20024;-59
2022/11/02 09:22:11;;;;;;;1.55;0.90;;;;;;;;;;5097045;28;20393;-59
2022/11/02 09:25:06;;;;;;;2.50;1.60;;;;;;;;;;5097014;28;20030;-59
2022/11/02 09:31:32;;;;;;;;;;;;;;;;;;;;;
2022/11/02 09:34:17;;;;;;;3.97;1.05;;;;;;;;;;5035944;28;20414;-59
2022/11/02 09:37:19;;;;;;;2.17;0.98;;;;;;;;;;5056648;28;20029;-58
2022/11/02 09:46:23;;;;;;;3.92;1.42;;;;;;;;;;5055604;28;20497;-58
2022/11/02 09:52:26;;;;;;;2.30;0.95;;;;;;;;;;4984029;28;20037;-59
2022/11/02 09:55:35;;;;;;;;;;;;;;;;;;;;;
2022/11/02 10:02:00;;;;;;;;;;;;;;;;;;;;;
2022/11/02 10:04:54;;;;;;;4.05;0.93;;;;;;;;;;5055081;28;20462;-59
2022/11/02 10:07:54;;;;;;;;;;;;;;;;;;;;;
2022/11/02 10:10:55;;;;;;;5.00;1.40;;;;;;;;;;5056081;28;20362;-58
2022/11/02 10:20:02;;;;;;;3.53;1.30;;;;;;;;;;4994642;28;20053;-58
2022/11/02 10:22:34;;;;;;;2.92;0.90;;;;;;;;;;4994408;28;20453;-57
2022/11/02 10:25:30;;;;;;;4.32;1.48;;;;;;;;;;4994248;28;20049;-58
2022/11/02 10:28:16;;;;;;;;;;;;;;;;;;;;;
2022/11/02 10:30:46;;;;;;;3.47;1.00;;;;;;;;;;5009500;28;20045;-58
2022/11/02 10:33:18;;;;;;;4.17;1.17;;;;;;;;;;5081414;28;20480;-57
2022/11/02 10:36:05;;;;;;;4.07;1.52;;;;;;;;;;5095656;28;20258;-60
2022/11/02 10:45:12;;;;;;;1.92;0.75;;;;;;;;;;5095264;28;20031;-59
2022/11/02 10:48:06;;;;;;;1.70;1.00;;;;;;;;;;5095372;28;20035;-59
2022/11/02 10:50:44;;;;;;;2.53;0.95;;;;;;;;;;5096263;28;20333;-59
2022/11/02 10:57:04;;;;;;;5.20;1.00;;;;;;;;;;5094538;28;20526;-59
2022/11/02 11:00:02;;;;;;;4.60;1.20;;;;;;;;;;5076859;28;20149;-59
2022/11/02 11:03:20;;;;;;;3.42;1.02;;;;;;;;;;5075692;28;20043;-57
2022/11/02 11:05:58;;;;;;;3.15;1.23;;;;;;;;;;5071393;28;20039;-58
2022/11/02 11:11:56;;;;;;;1.33;0.68;;;;;;;;;;5079811;28;20107;-58
2022/11/02 11:14:28;;;;;;;4.35;1.30;;;;;;;;;;5094760;28;20024;-58
2022/11/02 11:17:29;;;;;;;3.75;0.80;;;;;;;;;;5094795;28;20500;-58
2022/11/02 11:20:02;;;;;;;7.82;1.33;;;;;;;;;;5076122;28;20039;-59
2022/11/02 11:22:36;;;;;;;5.60;1.13;;;;;;;;;;5100146;28;20035;-59
2022/11/02 11:25:40;;;;;;;4.47;0.80;;;;;;;;;;5096582;28;20020;-58
2022/11/02 11:28:31;;;;;;;9.05;1.52;;;;;;;;;;4992043;28;20042;-59
2022/11/02 11:37:52;;;;;;;3.83;1.00;;;;;;;;;;5053629;28;20040;-58
2022/11/02 11:40:27;;;;;;;;;;;;;;;;;;;;;
2022/11/02 11:43:07;;;;;;;4.47;0.75;;;;;;;;;;5054264;28;20239;-58
2022/11/02 11:55:24;;;;;;;;;;;;;;;;;;;;;
2022/11/02 11:58:22;;;;;;;2.33;1.10;;;;;;;;;;5032474;28;20418;-58
2022/11/02 12:01:27;;;;;;;2.90;0.75;;;;;;;;;;5052551;28;20494;-57
2022/11/02 12:07:45;;;;;;;4.78;1.33;;;;;;;;;;5032599;28;20036;-57
2022/11/02 12:10:25;;;;;;;5.07;2.53;;;;;;;;;;5052086;28;20526;-58
2022/11/02 12:13:08;;;;;;;2.72;1.08;;;;;;;;;;4991287;28;20130;-56
2022/11/02 12:18:59;;;;;;;4.63;0.98;;;;;;;;;;4991557;28;20125;-58
2022/11/02 12:21:46;;;;;;;7.75;1.20;;;;;;;;;;4992027;28;20244;-58
2022/11/02 12:24:30;;;;;;;6.18;1.00;;;;;;;;;;4991667;28;20062;-58
2022/11/02 12:33:18;;;;;;;6.28;1.25;;;;;;;;;;4998680;28;20391;-57
2022/11/02 12:39:19;;;;;;;;;;;;;;;;;;;;;
2022/11/02 12:45:13;;;;;;;5.47;1.20;;;;;;;;;;5055100;28;20036;-57
2022/11/02 12:48:00;;;;;;;5.97;1.27;;;;;;;;;;5055134;28;20060;-57
2022/11/02 12:57:38;;;;;;;3.67;1.15;;;;;;;;;;5052181;28;20037;-57
2022/11/02 13:00:22;;;;;;;4.70;1.38;;;;;;;;;;5050507;28;20443;-58
2022/11/02 13:03:06;;;;;;;4.53;2.13;;;;;;;;;;5057135;28;20045;-56
2022/11/02 13:05:56;;;;;;;2.08;0.75;;;;;;;;;;5057454;28;20458;-56
2022/11/02 13:14:53;;;;;;;4.63;0.85;;;;;;;;;;4997189;28;20022;-57
2022/11/02 13:17:34;;;;;;;3.13;1.35;;;;;;;;;;5014850;28;20038;-57
2022/11/02 13:20:39;;;;;;;2.97;1.13;;;;;;;;;;5015245;28;20026;-56
2022/11/02 13:23:36;;;;;;;8.05;0.98;;;;;;;;;;5040986;28;20044;-57
2022/11/02 13:29:49;;;;;;;4.75;0.90;;;;;;;;;;5047861;28;20378;-57
2022/11/02 13:35:55;;;;;;;1.05;0.50;;;;;;;;;;5097166;28;20052;-57
2022/11/02 13:41:47;;;;;;;1.35;0.90;;;;;;;;;;5102578;28;20133;-57
2022/11/02 13:44:32;;;;;;;4.15;1.00;;;;;;;;;;5095925;28;20363;-57
2022/11/02 13:50:25;;;;;;;3.00;1.27;;;;;;;;;;5061170;28;20040;-57
2022/11/02 13:53:01;;;;;;;4.43;1.00;;;;;;;;;;5095727;28;20035;-57
2022/11/02 13:59:10;;;;;;;4.25;1.38;;;;;;;;;;5033464;28;20059;-56
2022/11/02 14:01:49;;;;;;;1.95;0.52;;;;;;;;;;5079092;28;20074;-56
2022/11/02 14:04:39;;;;;;;3.30;0.77;;;;;;;;;;5033144;28;20115;-57
2022/11/02 14:10:52;;;;;;;3.33;1.20;;;;;;;;;;5032744;28;20037;-57
2022/11/02 14:13:41;;;;;;;1.13;0.63;;;;;;;;;;5033149;28;20041;-57
2022/11/02 14:16:43;;;;;;;3.35;0.75;;;;;;;;;;4978921;28;20055;-57
2022/11/02 14:19:46;;;;;;;8.27;1.20;;;;;;;;;;5033094;28;20049;-57
2022/11/02 14:22:24;;;;;;;5.63;1.70;;;;;;;;;;5042132;28;20036;-57
2022/11/02 14:31:20;;;;;;;3.13;1.05;;;;;;;;;;5008809;28;20499;-56
2022/11/02 14:34:08;;;;;;;3.70;0.98;;;;;;;;;;5042231;28;20083;-57
2022/11/02 14:36:59;;;;;;;6.15;1.10;;;;;;;;;;5067550;28;20079;-57
2022/11/02 14:39:25;;;;;;;;;;;;;;;;;;5065912;28;20037;-57
2022/11/02 14:42:10;;;;;;;2.50;0.65;;;;;;;;;;5060052;28;20275;-57
2022/11/02 14:45:05;;;;;;;5.97;1.73;;;;;;;;;;5054761;28;20036;-56
2022/11/02 14:47:42;;;;;;;3.55;0.95;;;;;;;;;;5055173;28;20447;-57
2022/11/02 14:50:44;;;;;;;7.18;1.50;;;;;;;;;;5054761;28;20033;-58
2022/11/02 14:53:48;;;;;;;3.13;1.10;;;;;;;;;;5043902;28;20052;-57
2022/11/02 14:56:33;;;;;;;;;;;;;;;;;;;;;
2022/11/02 14:59:08;;;;;;;4.30;1.67;;;;;;;;;;5031752;28;20047;-57
2022/11/02 15:02:01;;;;;;;4.38;0.98;;;;;;;;;;5032589;28;20076;-57
2022/11/02 15:05:00;;;;;;;;;;;;;;;;;;;;;
2022/11/02 15:08:04;;;;;;;5.65;1.70;;;;;;;;;;5030110;28;20060;-56
2022/11/02 15:10:51;;;;;;;10.43;2.05;;;;;;;;;;4954554;28;20501;-54
2022/11/02 15:14:11;;;;;;;;;;;;;;;;;;;;;
2022/11/02 15:20:18;;;;;;;10.35;1.92;;;;;;;;;;4955030;28;20176;-57
2022/11/02 15:26:23;;;;;;;;;;;;;;;;;;;;;
2022/11/02 15:29:06;;;;;;;10.75;1.50;;;;;;;;;;4991700;28;20042;-57
2022/11/02 15:31:53;;;;;;;3.45;1.58;;;;;;;;;;4993478;28;20073;-57
2022/11/02 15:34:39;;;;;;;7.32;2.22;;;;;;;;;;4983718;28;20493;-57
2022/11/02 15:37:17;;;;;;;3.78;1.75;;;;;;;;;;5031984;28;20033;-57
2022/11/02 15:43:33;;;;;;;;;;;;;;;;;;;;;
2022/11/02 15:46:15;;;;;;;10.13;2.63;;;;;;;;;;4992427;28;20034;-57
2022/11/02 15:48:53;;;;;;;3.17;2.17;;;;;;;;;;4991760;28;20069;-57
2022/11/02 15:51:53;;;;;;;;;;;;;;;;;;;;;
2022/11/02 15:55:06;;;;;;;5.00;1.77;;;;;;;;;;5016845;28;20176;-57
2022/11/02 15:57:49;;;;;;;9.18;2.38;;;;;;;;;;5029848;28;20047;-56
2022/11/02 16:03:18;;;;;;;6.43;1.95;;;;;;;;;;5094020;28;20028;-56
2022/11/02 16:06:00;;;;;;;6.53;2.40;;;;;;;;;;5098127;28;20020;-57
2022/11/02 16:08:58;;;;;;;4.40;2.15;;;;;;;;;;5065205;28;20505;-57
2022/11/02 16:11:47;;;;;;;;;;;;;;;;;;;;;
2022/11/02 16:14:41;;;;;;;3.40;1.70;;;;;;;;;;5095599;28;20099;-56
2022/11/02 16:17:43;;;;;;;10.65;2.58;;;;;;;;;;5079056;28;20032;-56
2022/11/02 16:20:18;;;;;;;6.13;1.90;;;;;;;;;;5079496;28;20043;-57
2022/11/02 16:26:00;;;;;;;5.95;2.55;;;;;;;;;;4996817;28;20492;-57
2022/11/02 16:38:30;;;;;;;7.50;3.17;;;;;;;;;;5096954;28;20109;-58
2022/11/02 16:42:00;;;;;;;;;;;;;;;;;;;;;
2022/11/02 16:44:46;;;;;;;7.68;2.67;;;;;;;;;;5089396;28;20032;-57
2022/11/02 16:50:56;;;;;;;12.65;2.95;;;;;;;;;;5040744;28;20032;-57
2022/11/02 16:54:11;;;;;;;7.38;2.00;;;;;;;;;;5083218;28;20123;-58
2022/11/02 16:57:16;;;;;;;;;;;;;;;;;;;;;
2022/11/02 17:00:16;;;;;;;14.93;2.47;;;;;;;;;;5093584;28;20035;-57
2022/11/02 17:03:16;;;;;;;4.65;1.67;;;;;;;;;;5078285;28;20039;-57
2022/11/02 17:05:59;;;;;;;9.93;1.85;;;;;;;;;;5096312;28;20032;-58
2022/11/02 17:17:54;;;;;;;;;;;;;;;;;;;;;
2022/11/02 17:20:35;;;;;;;3.50;1.85;;;;;;;;;;5093595;28;20032;-58
2022/11/02 17:23:25;;;;;;;2.72;1.02;;;;;;;;;;5096691;28;20030;-57
2022/11/02 17:26:13;;;;;;;8.57;2.30;;;;;;;;;;5069236;28;20125;-58
2022/11/02 17:28:59;;;;;;;8.95;1.60;;;;;;;;;;5097023;28;20032;-58
2022/11/02 17:31:52;;;;;;;7.20;1.98;;;;;;;;;;5094619;28;20477;-58
2022/11/02 17:34:34;;;;;;;;;;;;;;;;;;;;;
2022/11/02 17:37:19;;;;;;;5.00;1.75;;;;;;;;;;5095566;28;20393;-58
2022/11/02 17:39:52;;;;;;;9.18;2.45;;;;;;;;;;5076472;28;20497;-58
2022/11/02 17:45:37;;;;;;;4.68;1.80;;;;;;;;;;5096058;28;20027;-57
2022/11/02 17:48:06;;;;;;;8.35;1.73;;;;;;;;;;5083731;28;20398;-58
2022/11/02 17:50:43;;;;;;;7.72;2.38;;;;;;;;;;5076371;28;20040;-56
2022/11/02 17:56:45;;;;;;;6.07;1.92;;;;;;;;;;5033253;28;20033;-57
2022/11/02 18:06:00;;;;;;;4.95;1.70;;;;;;;;;;4977879;28;20145;-58
2022/11/02 18:09:09;;;;;;;4.68;2.40;;;;;;;;;;5020540;28;20499;-58
2022/11/02 18:11:24;;;;;;;5.50;2.33;;;;;;;;;;5018956;28;20561;-56
2022/11/02 18:14:15;;;;;;;8.50;3.42;;;;;;;;;;5032944;28;20057;-55
2022/11/02 18:16:59;;;;;;;3.75;1.90;;;;;;;;;;5008596;28;20026;-56
2022/11/02 18:22:42;;;;;;;;;;;;;;;;;;;;;
2022/11/02 18:25:44;;;;;;;5.80;2.83;;;;;;;;;;5032183;28;20089;-57
2022/11/02 18:34:23;;;;;;;5.90;4.28;;;;;;;;;;5080615;28;20028;-57
2022/11/02 18:36:53;;;;;;;7.43;2.90;;;;;;;;;;5062628;28;20037;-55
2022/11/02 18:42:29;;;;;;;6.47;3.00;;;;;;;;;;5046409;28;20040;-58
2022/11/02 18:48:20;;;;;;;7.03;3.35;;;;;;;;;;5055327;28;20036;-55
2022/11/02 18:51:06;;;;;;;5.93;4.03;;;;;;;;;;5027083;28;20041;-54
2022/11/02 18:59:34;;;;;;;8.25;3.97;;;;;;;;;;5048768;28;20100;-55
2022/11/02 19:02:10;;;;;;;6.40;4.70;;;;;;;;;;5052558;28;20531;-54
2022/11/02 19:04:51;;;;;;;16.83;4.93;;;;;;;;;;5053906;28;20045;-55
2022/11/02 19:13:57;;;;;;;7.40;3.70;;;;;;;;;;5044907;28;20074;-55
2022/11/02 19:16:48;;;;;;;8.27;4.20;;;;;;;;;;5054311;28;20035;-57
2022/11/02 19:19:51;;;;;;;13.15;4.35;;;;;;;;;;5054468;28;20124;-57
2022/11/02 19:25:39;;;;;;;6.68;3.83;;;;;;;;;;5054031;28;20082;-55
2022/11/02 19:28:33;;;;;;;5.03;3.53;;;;;;;;;;5052137;28;20450;-56
2022/11/02 19:31:28;;;;;;;8.00;4.13;;;;;;;;;;5054201;28;20108;-56
2022/11/02 19:34:05;;;;;;;8.10;4.72;;;;;;;;;;5054430;28;20056;-53
2022/11/02 19:39:50;;;;;;;;;;;;;;;;;;;;;
2022/11/02 19:42:44;;;;;;;5.90;4.43;;;;;;;;;;5094219;28;20109;-57
2022/11/02 19:45:33;;;;;;;15.02;4.72;;;;;;;;;;5076117;28;20019;-54
2022/11/02 19:52:00;;;;;;;6.78;4.35;;;;;;;;;;5031334;28;20037;-57
2022/11/02 19:57:56;;;;;;;8.18;4.20;;;;;;;;;;5032287;28;20087;-57
2022/11/02 20:00:34;;;;;;;6.60;4.00;;;;;;;;;;5087709;28;20112;-58
2022/11/02 20:03:40;;;;;;;10.57;5.03;;;;;;;;;;5095050;28;20051;-53
2022/11/02 20:06:39;;;;;;;8.18;4.95;;;;;;;;;;5093632;28;20035;-52
2022/11/02 20:09:27;;;;;;;8.73;4.75;;;;;;;;;;5069808;28;20491;-56
2022/11/02 20:12:21;;;;;;;9.15;5.53;;;;;;;;;;5094313;28;20412;-58
2022/11/02 20:15:02;;;;;;;8.57;4.88;;;;;;;;;;4992802;28;20038;-58
2022/11/02 20:20:51;;;;;;;8.00;5.90;;;;;;;;;;5012496;28;19991;-58
2022/11/02 20:23:48;;;;;;;8.40;5.38;;;;;;;;;;5011866;28;20076;-56
2022/11/02 20:26:45;;;;;;;9.13;4.57;;;;;;;;;;5012054;28;20053;-56
2022/11/02 20:29:17;;;;;;;4.95;4.28;;;;;;;;;;5012023;28;20037;-57
2022/11/02 20:32:19;;;;;;;10.55;5.30;;;;;;;;;;5010468;28;20038;-58
2022/11/02 20:38:06;;;;;;;6.35;4.30;;;;;;;;;;5083780;28;20477;-57
2022/11/02 20:40:56;;;;;;;6.95;4.32;;;;;;;;;;5092409;28;20078;-57
2022/11/02 20:43:29;;;;;;;6.07;3.65;;;;;;;;;;5094314;28;20035;-54
2022/11/02 20:52:33;;;;;;;7.47;4.43;;;;;;;;;;5087942;28;20032;-55
2022/11/02 20:55:21;;;;;;;8.57;5.18;;;;;;;;;;5097144;28;20378;-54
2022/11/02 20:58:28;;;;;;;6.78;4.70;;;;;;;;;;5097624;28;20024;-54
2022/11/02 21:01:29;;;;;;;7.30;4.60;;;;;;;;;;5062914;28;20055;-56
2022/11/02 21:04:24;;;;;;;6.97;4.28;;;;;;;;;;5098025;28;20059;-57
2022/11/02 21:07:14;;;;;;;9.65;4.63;;;;;;;;;;5089424;28;20038;-57
2022/11/02 21:09:56;;;;;;;;;;;;;;;;;;;;;
2022/11/02 21:15:48;;;;;;;4.93;4.43;;;;;;;;;;5096065;28;20043;-55
2022/11/02 21:18:46;;;;;;;12.38;5.32;;;;;;;;;;5078940;28;20457;-57
2022/11/02 21:21:25;;;;;;;9.57;4.22;;;;;;;;;;5096178;28;20069;-55
2022/11/02 21:24:26;;;;;;;7.38;4.97;;;;;;;;;;5097159;28;20374;-57
2022/11/02 21:27:16;;;;;;;9.88;4.38;;;;;;;;;;4994298;28;20030;-57
2022/11/02 21:29:49;;;;;;;6.65;4.72;;;;;;;;;;5009769;28;20466;-56
2022/11/02 21:35:45;;;;;;;10.35;4.63;;;;;;;;;;5096388;28;20035;-58
2022/11/02 21:38:28;;;;;;;5.28;4.28;;;;;;;;;;5094315;28;20382;-57
2022/11/02 21:41:17;;;;;;;;;;;;;;;;;;;;;
2022/11/02 21:43:54;;;;;;;13.27;5.85;;;;;;;;;;5080080;28;20496;-56
2022/11/02 21:46:41;;;;;;;9.52;4.85;;;;;;;;;;5053501;28;20518;-57
2022/11/02 21:49:31;;;;;;;8.45;4.75;;;;;;;;;;5092933;28;20485;-57
2022/11/02 21:55:10;;;;;;;6.00;3.80;;;;;;;;;;5096035;28;19957;-57
2022/11/02 22:03:52;;;;;;;9.88;4.20;;;;;;;;;;5108338;28;20038;-57
2022/11/02 22:09:54;;;;;;;;;;;;;;;;;;;;;
2022/11/02 22:16:03;;;;;;;13.63;5.53;;;;;;;;;;5107803;28;20027;-56
2022/11/02 22:22:05;;;;;;;5.35;3.60;;;;;;;;;;5096798;28;20035;-56
2022/11/02 22:24:47;;;;;;;14.60;4.32;;;;;;;;;;5090197;28;20030;-56
2022/11/02 22:30:50;;;;;;;;;;;;;;;;;;;;;
2022/11/02 22:34:08;;;;;;;;;;;;;;;;;;;;;
2022/11/02 22:38:47;;;;;;;6.00;4.75;;;;;;;;;;5106999;28;20048;-54
2022/11/02 22:40:24;;;;;;;6.47;4.27;;;;;;;;;;5066108;28;20131;-57
2022/11/02 22:46:04;;;;;;;8.68;4.38;;;;;;;;;;4996176;28;20058;-57
2022/11/02 22:48:34;;;;;;;;;;;;;;;;;;5006533;28;20068;-58
2022/11/02 22:53:48;;;;;;;5.45;3.72;;;;;;;;;;5006612;28;20033;-56
2022/11/02 22:56:32;;;;;;;6.00;4.18;;;;;;;;;;5008488;28;20018;-56
2022/11/02 22:59:43;;;;;;;;;;;;;;;;;;;;;
2022/11/02 23:02:20;;;;;;;7.18;4.65;;;;;;;;;;5033380;28;20483;-57
2022/11/02 23:05:04;;;;;;;5.90;3.90;;;;;;;;;;5066203;28;20052;-57
2022/11/02 23:13:30;;;;;;;5.63;3.33;;;;;;;;;;5067536;28;20028;-58
2022/11/02 23:16:22;;;;;;;5.50;4.38;;;;;;;;;;5066975;28;20035;-57
2022/11/02 23:19:22;;;;;;;8.00;4.57;;;;;;;;;;5065569;28;20048;-54
2022/11/02 23:25:16;;;;;;;8.10;4.38;;;;;;;;;;5066975;28;20027;-56
2022/11/02 23:43:09;;;;;;;7.80;4.40;;;;;;;;;;5020019;28;20065;-57
2022/11/02 23:45:41;;;;;;;5.78;4.78;;;;;;;;;;5025239;28;20026;-58
2022/11/02 23:57:11;;;;;;;7.72;4.70;;;;;;;;;;5026090;28;20610;-57
2022/11/02 23:59:40;;;;;;;7.45;4.50;;;;;;;;;;5064561;28;20029;-57
